Adamantios Korais — SVAE3 — position and weather

sailwx.info

Track history (hours):
 
Tides and Currents Weather Stations Pressure Air Temp Water Temp Dewpoint Dewpoint Depression Visibility Wind Speed Wind Dir Waves Ship Positions

Adamantios Korais

Last reported at 2017-Sep-22 02:00 UTC. Time now 2017-Sep-23 16:27 UTC.
Position N 37°57' E 023°38'.

Length 100 m; draft 4.5 m.

Type: Passenger vessel. MMSI: 239410300.

Date/timePositionNaut miles runAvg speedWind from/ knotsBaromVisibWave heightAir tempDewpointWater temp
2017-Sep-22 02:00N 37°57' E 023°38'0 0.0
2017-Sep-22 01:31N 37°57' E 023°38'0 0.0
2017-Sep-22 01:01N 37°57' E 023°38'0 0.0
2017-Sep-22 00:31N 37°57' E 023°38'0 0.0
2017-Sep-22 00:01N 37°57' E 023°38'0 0.0
2017-Sep-21 23:31N 37°57' E 023°38'0 0.0
2017-Sep-21 23:01N 37°57' E 023°38'0 0.0
2017-Sep-21 22:31N 37°57' E 023°38'0 0.0
2017-Sep-21 22:01N 37°57' E 023°38'0 0.0
2017-Sep-21 21:31N 37°57' E 023°38'0 0.0
2017-Sep-21 21:01N 37°57' E 023°38'0 0.0
2017-Sep-21 20:31N 37°57' E 023°38'0 0.0
2017-Sep-21 20:00N 37°57' E 023°38'0 0.0
2017-Sep-21 19:31N 37°57' E 023°38'0 0.0
2017-Sep-21 19:01N 37°57' E 023°38'0 0.4
2017-Sep-21 18:31N 37°57' E 023°38'510.1
2017-Sep-21 18:00N 37°52' E 023°39'815.2
2017-Sep-21 17:30N 37°45' E 023°44'10 0.3
2017-Sep-20 12:44N 37°37' E 023°51'415.8
2017-Sep-20 12:30N 37°38' E 023°47'815.0
2017-Sep-20 12:00N 37°44' E 023°40'815.3
2017-Sep-20 11:30N 37°51' E 023°38'510.4
2017-Sep-20 11:00N 37°57' E 023°38'0 0.0
2017-Sep-20 10:30N 37°57' E 023°38'0 0.0
2017-Sep-20 10:00N 37°57' E 023°38'0 0.0
2017-Sep-20 09:30N 37°57' E 023°38'0 0.0
2017-Sep-20 09:00N 37°57' E 023°38'0 0.0
2017-Sep-20 08:30N 37°57' E 023°38'0 0.0
2017-Sep-20 08:00N 37°57' E 023°38'0 0.0
2017-Sep-20 07:30N 37°57' E 023°38'0 0.0
2017-Sep-20 07:00N 37°57' E 023°38'0 0.0
2017-Sep-20 06:30N 37°57' E 023°38'0 0.0
2017-Sep-20 06:00N 37°57' E 023°38'0 0.0
2017-Sep-20 05:30N 37°57' E 023°38'0 0.0
2017-Sep-20 05:00N 37°57' E 023°38'0 0.0
2017-Sep-20 04:30N 37°57' E 023°38'0 0.0
2017-Sep-20 04:00N 37°57' E 023°38'0 0.0
2017-Sep-20 03:30N 37°57' E 023°38'0 0.0
2017-Sep-20 03:00N 37°57' E 023°38'0 0.0
2017-Sep-20 02:30N 37°57' E 023°38'0 0.0
2017-Sep-20 02:00N 37°57' E 023°38'0 0.0
2017-Sep-20 01:30N 37°57' E 023°38'0 0.0
2017-Sep-20 01:00N 37°57' E 023°38'0 0.0
2017-Sep-20 00:30N 37°57' E 023°38'0 0.0
2017-Sep-20 00:00N 37°57' E 023°38'0 0.0
2017-Sep-19 23:30N 37°57' E 023°38'0 0.0
2017-Sep-19 23:00N 37°57' E 023°38'0 0.0
2017-Sep-19 21:40N 37°57' E 023°38'0 0.1
2017-Sep-19 21:30N 37°57' E 023°38'0 0.0
2017-Sep-19 21:00N 37°57' E 023°38'0 0.0
2017-Sep-19 20:30N 37°57' E 023°38'0 0.0
2017-Sep-19 19:07N 37°57' E 023°38'0 0.0
2017-Sep-19 19:00N 37°57' E 023°38'0 0.0
2017-Sep-19 18:30N 37°57' E 023°38'1 1.3
2017-Sep-19 18:00N 37°56' E 023°38'5 9.9
2017-Sep-19 17:31N 37°52' E 023°39'816.2
2017-Sep-19 17:00N 37°44' E 023°44'815.5
2017-Sep-19 16:30N 37°39' E 023°51'815.8
2017-Sep-19 16:00N 37°35' E 023°59'54 8.3
2017-Sep-19 09:34N 36°45' E 024°24'116.6
2017-Sep-19 09:30N 36°46' E 024°24'54 2.6
2017-Sep-18 12:59N 37°35' E 023°55'715.8
2017-Sep-18 12:30N 37°38' E 023°47'715.0
2017-Sep-18 12:00N 37°44' E 023°40'815.7
2017-Sep-18 11:30N 37°52' E 023°37'510.3
2017-Sep-18 11:01N 37°57' E 023°38'0 0.0
2017-Sep-18 10:30N 37°57' E 023°38'0 0.0
2017-Sep-18 10:01N 37°57' E 023°38'0 0.0
2017-Sep-18 09:31N 37°57' E 023°38'0 0.0
2017-Sep-18 09:00N 37°57' E 023°38'0 0.0
2017-Sep-18 08:31N 37°57' E 023°38'0 0.0
2017-Sep-18 08:01N 37°57' E 023°38'0 0.0
2017-Sep-18 07:31N 37°57' E 023°38'0 0.0
2017-Sep-18 07:01N 37°57' E 023°38'0 0.0
2017-Sep-18 06:31N 37°57' E 023°38'0 0.0
2017-Sep-18 06:00N 37°57' E 023°38'0 0.0
2017-Sep-18 05:31N 37°57' E 023°38'0 0.0
2017-Sep-18 05:01N 37°57' E 023°38'0 0.0
2017-Sep-18 04:30N 37°57' E 023°38'0 0.0
2017-Sep-18 04:01N 37°57' E 023°38'0 0.0
2017-Sep-18 03:30N 37°57' E 023°38'0 0.0
2017-Sep-18 03:01N 37°57' E 023°38'0 0.0
2017-Sep-18 02:31N 37°57' E 023°38'0 0.0
2017-Sep-18 02:01N 37°57' E 023°38'0 0.0
2017-Sep-18 01:31N 37°57' E 023°38'0 0.0
2017-Sep-18 01:01N 37°57' E 023°38'0 0.0
2017-Sep-18 00:30N 37°57' E 023°38'0 0.0
2017-Sep-18 00:01N 37°57' E 023°38'0 0.0
2017-Sep-17 23:31N 37°57' E 023°38'0 0.0
2017-Sep-17 23:01N 37°57' E 023°38'0 0.0
2017-Sep-17 22:31N 37°57' E 023°38'0 0.0
2017-Sep-17 22:01N 37°57' E 023°38'0 0.0
2017-Sep-17 21:31N 37°57' E 023°38'0 0.0
2017-Sep-17 21:01N 37°57' E 023°38'0 0.0
2017-Sep-17 20:30N 37°57' E 023°38'0 0.0
2017-Sep-17 20:01N 37°57' E 023°38'0 0.0
2017-Sep-17 19:31N 37°57' E 023°38'0 0.0
2017-Sep-17 19:01N 37°57' E 023°38'0 0.0
2017-Sep-17 18:31N 37°57' E 023°38'0 0.0
2017-Sep-17 18:01N 37°57' E 023°38'0 0.1
2017-Sep-17 17:31N 37°57' E 023°38'5 9.0
2017-Sep-17 17:00N 37°52' E 023°39'816.4
2017-Sep-17 16:30N 37°45' E 023°44'816.1
2017-Sep-17 16:00N 37°38' E 023°50'816.4
2017-Sep-17 15:29N 37°32' E 023°58'8 0.2
2017-Sep-16 05:51N 37°37' E 023°50'616.4
2017-Sep-16 05:30N 37°40' E 023°44'816.2
2017-Sep-16 05:01N 37°47' E 023°39'815.9
2017-Sep-16 04:31N 37°55' E 023°37'2 4.1
2017-Sep-16 04:00N 37°57' E 023°38'0 0.0
2017-Sep-16 03:30N 37°57' E 023°38'0 0.0
2017-Sep-16 03:00N 37°57' E 023°38'0 0.0
2017-Sep-16 02:30N 37°57' E 023°38'0 0.0
2017-Sep-16 02:00N 37°57' E 023°38'0 0.0
2017-Sep-16 01:30N 37°57' E 023°38'0 0.0
2017-Sep-16 01:00N 37°57' E 023°38'0 0.0
2017-Sep-16 00:30N 37°57' E 023°38'0 0.0
2017-Sep-16 00:00N 37°57' E 023°38'0 0.0
2017-Sep-15 23:30N 37°57' E 023°38'0 0.0
2017-Sep-15 23:00N 37°57' E 023°38'0 0.0
2017-Sep-15 22:30N 37°57' E 023°38'0 0.0
2017-Sep-15 22:00N 37°57' E 023°38'0 0.0
2017-Sep-15 21:30N 37°57' E 023°38'0 0.0
2017-Sep-15 21:00N 37°57' E 023°38'0 0.0
2017-Sep-15 20:30N 37°57' E 023°38'0 0.0
2017-Sep-15 20:00N 37°57' E 023°38'0 0.0
2017-Sep-15 19:30N 37°57' E 023°38'0 0.0
2017-Sep-15 19:00N 37°57' E 023°38'2 4.4
2017-Sep-15 18:30N 37°54' E 023°38'816.5
2017-Sep-15 18:00N 37°47' E 023°42'816.1
2017-Sep-15 17:30N 37°40' E 023°47'816.6
2017-Sep-15 17:00N 37°34' E 023°55'816.5
2017-Sep-15 16:30N 37°28' E 024°01'2115.9
2017-Sep-15 15:09N 37°12' E 024°19'215.9
2017-Sep-15 15:00N 37°10' E 024°21'40 4.2
2017-Sep-15 05:33N 37°38' E 023°46'116.4
2017-Sep-15 05:30N 37°38' E 023°45'816.4
2017-Sep-15 05:00N 37°45' E 023°40'816.0
2017-Sep-15 04:30N 37°53' E 023°38'4 7.5
2017-Sep-15 04:00N 37°57' E 023°38'0 0.0
2017-Sep-15 03:30N 37°57' E 023°38'0 0.0
2017-Sep-15 03:00N 37°57' E 023°38'0 0.0
2017-Sep-15 02:30N 37°57' E 023°38'0 0.0
2017-Sep-15 02:00N 37°57' E 023°38'0 0.0
2017-Sep-15 01:30N 37°57' E 023°38'0 0.0
2017-Sep-15 01:00N 37°57' E 023°38'0 0.0
2017-Sep-15 00:30N 37°57' E 023°38'0 0.0
2017-Sep-15 00:00N 37°57' E 023°38'0 0.0
2017-Sep-14 23:30N 37°57' E 023°38'0 0.0
2017-Sep-14 23:00N 37°57' E 023°38'0 0.0
2017-Sep-14 22:30N 37°57' E 023°38'0 0.0
2017-Sep-14 22:00N 37°57' E 023°38'0 0.0
2017-Sep-14 21:30N 37°57' E 023°38'0 0.0
2017-Sep-14 21:00N 37°57' E 023°38'0 0.0
2017-Sep-14 20:30N 37°57' E 023°38'0 0.0
2017-Sep-14 20:00N 37°57' E 023°38'0 0.0
2017-Sep-14 19:30N 37°57' E 023°38'0 0.0
2017-Sep-14 19:00N 37°57' E 023°38'1 1.5
2017-Sep-14 18:30N 37°56' E 023°38'510.7
2017-Sep-14 18:00N 37°51' E 023°40'816.0
2017-Sep-14 17:30N 37°44' E 023°44'815.5
2017-Sep-14 17:00N 37°39' E 023°51'2 0.1
2017-Sep-13 12:45N 37°37' E 023°52'415.9
2017-Sep-13 12:28N 37°39' E 023°47'715.2
2017-Sep-13 12:00N 37°44' E 023°41'816.0
2017-Sep-13 11:30N 37°51' E 023°37'5 4.2
2017-Sep-13 10:16N 37°57' E 023°38'0 0.0
2017-Sep-13 09:56N 37°57' E 023°38'0 0.0
2017-Sep-13 05:20N 37°57' E 023°38'0 0.0
2017-Sep-13 04:00N 37°57' E 023°38'0 0.0
2017-Sep-12 22:03N 37°57' E 023°38'0 0.0
2017-Sep-12 22:00N 37°57' E 023°38'0 0.0
2017-Sep-12 21:30N 37°57' E 023°38'0 0.0
2017-Sep-12 21:00N 37°57' E 023°38'0 0.0
2017-Sep-12 20:30N 37°57' E 023°38'0 0.0
2017-Sep-12 20:00N 37°57' E 023°38'0 0.0
2017-Sep-12 19:30N 37°57' E 023°38'0 0.0
2017-Sep-12 19:00N 37°57' E 023°38'2 4.0
2017-Sep-12 18:31N 37°55' E 023°38'714.7
2017-Sep-12 18:00N 37°48' E 023°42'815.2
2017-Sep-12 17:30N 37°41' E 023°46'815.9
2017-Sep-12 17:01N 37°37' E 023°55'  
Track history (hours):
 
Tides and Currents Weather Stations Pressure Air Temp Water Temp Dewpoint Dewpoint Depression Visibility Wind Speed Wind Dir Waves Ship Positions

Adamantios Korais

Last reported at 2017-Sep-22 02:00 UTC. Time now 2017-Sep-23 16:27 UTC.
Position N 37°57' E 023°38'.

Length 100 m; draft 4.5 m.

Type: Passenger vessel. MMSI: 239410300.

Date/timePositionNaut miles runAvg speedWind from/ knotsBaromVisibWave heightAir tempDewpointWater temp
2017-Sep-22 02:00N 37°57' E 023°38'0 0.0
2017-Sep-22 01:31N 37°57' E 023°38'0 0.0
2017-Sep-22 01:01N 37°57' E 023°38'0 0.0
2017-Sep-22 00:31N 37°57' E 023°38'0 0.0
2017-Sep-22 00:01N 37°57' E 023°38'0 0.0
2017-Sep-21 23:31N 37°57' E 023°38'0 0.0
2017-Sep-21 23:01N 37°57' E 023°38'0 0.0
2017-Sep-21 22:31N 37°57' E 023°38'0 0.0
2017-Sep-21 22:01N 37°57' E 023°38'0 0.0
2017-Sep-21 21:31N 37°57' E 023°38'0 0.0
2017-Sep-21 21:01N 37°57' E 023°38'0 0.0
2017-Sep-21 20:31N 37°57' E 023°38'0 0.0
2017-Sep-21 20:00N 37°57' E 023°38'0 0.0
2017-Sep-21 19:31N 37°57' E 023°38'0 0.0
2017-Sep-21 19:01N 37°57' E 023°38'0 0.4
2017-Sep-21 18:31N 37°57' E 023°38'510.1
2017-Sep-21 18:00N 37°52' E 023°39'815.2
2017-Sep-21 17:30N 37°45' E 023°44'10 0.3
2017-Sep-20 12:44N 37°37' E 023°51'415.8
2017-Sep-20 12:30N 37°38' E 023°47'815.0
2017-Sep-20 12:00N 37°44' E 023°40'815.3
2017-Sep-20 11:30N 37°51' E 023°38'510.4
2017-Sep-20 11:00N 37°57' E 023°38'0 0.0
2017-Sep-20 10:30N 37°57' E 023°38'0 0.0
2017-Sep-20 10:00N 37°57' E 023°38'0 0.0
2017-Sep-20 09:30N 37°57' E 023°38'0 0.0
2017-Sep-20 09:00N 37°57' E 023°38'0 0.0
2017-Sep-20 08:30N 37°57' E 023°38'0 0.0
2017-Sep-20 08:00N 37°57' E 023°38'0 0.0
2017-Sep-20 07:30N 37°57' E 023°38'0 0.0
2017-Sep-20 07:00N 37°57' E 023°38'0 0.0
2017-Sep-20 06:30N 37°57' E 023°38'0 0.0
2017-Sep-20 06:00N 37°57' E 023°38'0 0.0
2017-Sep-20 05:30N 37°57' E 023°38'0 0.0
2017-Sep-20 05:00N 37°57' E 023°38'0 0.0
2017-Sep-20 04:30N 37°57' E 023°38'0 0.0
2017-Sep-20 04:00N 37°57' E 023°38'0 0.0
2017-Sep-20 03:30N 37°57' E 023°38'0 0.0
2017-Sep-20 03:00N 37°57' E 023°38'0 0.0
2017-Sep-20 02:30N 37°57' E 023°38'0 0.0
2017-Sep-20 02:00N 37°57' E 023°38'0 0.0
2017-Sep-20 01:30N 37°57' E 023°38'0 0.0
2017-Sep-20 01:00N 37°57' E 023°38'0 0.0
2017-Sep-20 00:30N 37°57' E 023°38'0 0.0
2017-Sep-20 00:00N 37°57' E 023°38'0 0.0
2017-Sep-19 23:30N 37°57' E 023°38'0 0.0
2017-Sep-19 23:00N 37°57' E 023°38'0 0.0
2017-Sep-19 21:40N 37°57' E 023°38'0 0.1
2017-Sep-19 21:30N 37°57' E 023°38'0 0.0
2017-Sep-19 21:00N 37°57' E 023°38'0 0.0
2017-Sep-19 20:30N 37°57' E 023°38'0 0.0
2017-Sep-19 19:07N 37°57' E 023°38'0 0.0
2017-Sep-19 19:00N 37°57' E 023°38'0 0.0
2017-Sep-19 18:30N 37°57' E 023°38'1 1.3
2017-Sep-19 18:00N 37°56' E 023°38'5 9.9
2017-Sep-19 17:31N 37°52' E 023°39'816.2
2017-Sep-19 17:00N 37°44' E 023°44'815.5
2017-Sep-19 16:30N 37°39' E 023°51'815.8
2017-Sep-19 16:00N 37°35' E 023°59'54 8.3
2017-Sep-19 09:34N 36°45' E 024°24'116.6
2017-Sep-19 09:30N 36°46' E 024°24'54 2.6
2017-Sep-18 12:59N 37°35' E 023°55'715.8
2017-Sep-18 12:30N 37°38' E 023°47'715.0
2017-Sep-18 12:00N 37°44' E 023°40'815.7
2017-Sep-18 11:30N 37°52' E 023°37'510.3
2017-Sep-18 11:01N 37°57' E 023°38'0 0.0
2017-Sep-18 10:30N 37°57' E 023°38'0 0.0
2017-Sep-18 10:01N 37°57' E 023°38'0 0.0
2017-Sep-18 09:31N 37°57' E 023°38'0 0.0
2017-Sep-18 09:00N 37°57' E 023°38'0 0.0
2017-Sep-18 08:31N 37°57' E 023°38'0 0.0
2017-Sep-18 08:01N 37°57' E 023°38'0 0.0
2017-Sep-18 07:31N 37°57' E 023°38'0 0.0
2017-Sep-18 07:01N 37°57' E 023°38'0 0.0
2017-Sep-18 06:31N 37°57' E 023°38'0 0.0
2017-Sep-18 06:00N 37°57' E 023°38'0 0.0
2017-Sep-18 05:31N 37°57' E 023°38'0 0.0
2017-Sep-18 05:01N 37°57' E 023°38'0 0.0
2017-Sep-18 04:30N 37°57' E 023°38'0 0.0
2017-Sep-18 04:01N 37°57' E 023°38'0 0.0
2017-Sep-18 03:30N 37°57' E 023°38'0 0.0
2017-Sep-18 03:01N 37°57' E 023°38'0 0.0
2017-Sep-18 02:31N 37°57' E 023°38'0 0.0
2017-Sep-18 02:01N 37°57' E 023°38'0 0.0
2017-Sep-18 01:31N 37°57' E 023°38'0 0.0
2017-Sep-18 01:01N 37°57' E 023°38'0 0.0
2017-Sep-18 00:30N 37°57' E 023°38'0 0.0
2017-Sep-18 00:01N 37°57' E 023°38'0 0.0
2017-Sep-17 23:31N 37°57' E 023°38'0 0.0
2017-Sep-17 23:01N 37°57' E 023°38'0 0.0
2017-Sep-17 22:31N 37°57' E 023°38'0 0.0
2017-Sep-17 22:01N 37°57' E 023°38'0 0.0
2017-Sep-17 21:31N 37°57' E 023°38'0 0.0
2017-Sep-17 21:01N 37°57' E 023°38'0 0.0
2017-Sep-17 20:30N 37°57' E 023°38'0 0.0
2017-Sep-17 20:01N 37°57' E 023°38'0 0.0
2017-Sep-17 19:31N 37°57' E 023°38'0 0.0
2017-Sep-17 19:01N 37°57' E 023°38'0 0.0
2017-Sep-17 18:31N 37°57' E 023°38'0 0.0
2017-Sep-17 18:01N 37°57' E 023°38'0 0.1
2017-Sep-17 17:31N 37°57' E 023°38'5 9.0
2017-Sep-17 17:00N 37°52' E 023°39'816.4
2017-Sep-17 16:30N 37°45' E 023°44'816.1
2017-Sep-17 16:00N 37°38' E 023°50'816.4
2017-Sep-17 15:29N 37°32' E 023°58'8 0.2
2017-Sep-16 05:51N 37°37' E 023°50'616.4
2017-Sep-16 05:30N 37°40' E 023°44'816.2
2017-Sep-16 05:01N 37°47' E 023°39'815.9
2017-Sep-16 04:31N 37°55' E 023°37'2 4.1
2017-Sep-16 04:00N 37°57' E 023°38'0 0.0
2017-Sep-16 03:30N 37°57' E 023°38'0 0.0
2017-Sep-16 03:00N 37°57' E 023°38'0 0.0
2017-Sep-16 02:30N 37°57' E 023°38'0 0.0
2017-Sep-16 02:00N 37°57' E 023°38'0 0.0
2017-Sep-16 01:30N 37°57' E 023°38'0 0.0
2017-Sep-16 01:00N 37°57' E 023°38'0 0.0
2017-Sep-16 00:30N 37°57' E 023°38'0 0.0
2017-Sep-16 00:00N 37°57' E 023°38'0 0.0
2017-Sep-15 23:30N 37°57' E 023°38'0 0.0
2017-Sep-15 23:00N 37°57' E 023°38'0 0.0
2017-Sep-15 22:30N 37°57' E 023°38'0 0.0
2017-Sep-15 22:00N 37°57' E 023°38'0 0.0
2017-Sep-15 21:30N 37°57' E 023°38'0 0.0
2017-Sep-15 21:00N 37°57' E 023°38'0 0.0
2017-Sep-15 20:30N 37°57' E 023°38'0 0.0
2017-Sep-15 20:00N 37°57' E 023°38'0 0.0
2017-Sep-15 19:30N 37°57' E 023°38'0 0.0
2017-Sep-15 19:00N 37°57' E 023°38'2 4.4
2017-Sep-15 18:30N 37°54' E 023°38'816.5
2017-Sep-15 18:00N 37°47' E 023°42'816.1
2017-Sep-15 17:30N 37°40' E 023°47'816.6
2017-Sep-15 17:00N 37°34' E 023°55'816.5
2017-Sep-15 16:30N 37°28' E 024°01'2115.9
2017-Sep-15 15:09N 37°12' E 024°19'215.9
2017-Sep-15 15:00N 37°10' E 024°21'40 4.2
2017-Sep-15 05:33N 37°38' E 023°46'116.4
2017-Sep-15 05:30N 37°38' E 023°45'816.4
2017-Sep-15 05:00N 37°45' E 023°40'816.0
2017-Sep-15 04:30N 37°53' E 023°38'4 7.5
2017-Sep-15 04:00N 37°57' E 023°38'0 0.0
2017-Sep-15 03:30N 37°57' E 023°38'0 0.0
2017-Sep-15 03:00N 37°57' E 023°38'0 0.0
2017-Sep-15 02:30N 37°57' E 023°38'0 0.0
2017-Sep-15 02:00N 37°57' E 023°38'0 0.0
2017-Sep-15 01:30N 37°57' E 023°38'0 0.0
2017-Sep-15 01:00N 37°57' E 023°38'0 0.0
2017-Sep-15 00:30N 37°57' E 023°38'0 0.0
2017-Sep-15 00:00N 37°57' E 023°38'0 0.0
2017-Sep-14 23:30N 37°57' E 023°38'0 0.0
2017-Sep-14 23:00N 37°57' E 023°38'0 0.0
2017-Sep-14 22:30N 37°57' E 023°38'0 0.0
2017-Sep-14 22:00N 37°57' E 023°38'0 0.0
2017-Sep-14 21:30N 37°57' E 023°38'0 0.0
2017-Sep-14 21:00N 37°57' E 023°38'0 0.0
2017-Sep-14 20:30N 37°57' E 023°38'0 0.0
2017-Sep-14 20:00N 37°57' E 023°38'0 0.0
2017-Sep-14 19:30N 37°57' E 023°38'0 0.0
2017-Sep-14 19:00N 37°57' E 023°38'1 1.5
2017-Sep-14 18:30N 37°56' E 023°38'510.7
2017-Sep-14 18:00N 37°51' E 023°40'816.0
2017-Sep-14 17:30N 37°44' E 023°44'815.5
2017-Sep-14 17:00N 37°39' E 023°51'2 0.1
2017-Sep-13 12:45N 37°37' E 023°52'415.9
2017-Sep-13 12:28N 37°39' E 023°47'715.2
2017-Sep-13 12:00N 37°44' E 023°41'816.0
2017-Sep-13 11:30N 37°51' E 023°37'5 4.2
2017-Sep-13 10:16N 37°57' E 023°38'0 0.0
2017-Sep-13 09:56N 37°57' E 023°38'0 0.0
2017-Sep-13 05:20N 37°57' E 023°38'0 0.0
2017-Sep-13 04:00N 37°57' E 023°38'0 0.0
2017-Sep-12 22:03N 37°57' E 023°38'0 0.0
2017-Sep-12 22:00N 37°57' E 023°38'0 0.0
2017-Sep-12 21:30N 37°57' E 023°38'0 0.0
2017-Sep-12 21:00N 37°57' E 023°38'0 0.0
2017-Sep-12 20:30N 37°57' E 023°38'0 0.0
2017-Sep-12 20:00N 37°57' E 023°38'0 0.0
2017-Sep-12 19:30N 37°57' E 023°38'0 0.0
2017-Sep-12 19:00N 37°57' E 023°38'2 4.0
2017-Sep-12 18:31N 37°55' E 023°38'714.7
2017-Sep-12 18:00N 37°48' E 023°42'815.2
2017-Sep-12 17:30N 37°41' E 023°46'815.9
2017-Sep-12 17:01N 37°37' E 023°55'  

Dump ship's entire track history